createdAt,value
2018-09-24T00:02:45.681Z,19.8
2018-09-24T00:07:41.638Z,20
2018-09-24T00:12:37.676Z,20
2018-09-24T00:17:33.091Z,20
2018-09-24T00:22:28.798Z,19.8
2018-09-24T00:27:24.769Z,19.9
2018-09-24T00:32:20.712Z,20.5
2018-09-24T00:37:16.710Z,19.8
2018-09-24T00:42:12.309Z,19.8
2018-09-24T00:47:07.979Z,19.8
2018-09-24T00:52:03.518Z,19.5
2018-09-24T00:56:59.903Z,19.7
2018-09-24T01:01:55.773Z,19.7
2018-09-24T01:06:51.735Z,19.4
2018-09-24T01:11:47.526Z,19.5
2018-09-24T01:16:43.056Z,19.5
2018-09-24T01:21:38.880Z,20.2
2018-09-24T01:26:34.860Z,19.4
2018-09-24T01:31:30.864Z,19.5
2018-09-24T01:36:26.767Z,19.4
2018-09-24T01:41:22.638Z,20
2018-09-24T01:46:18.494Z,19.3
2018-09-24T01:51:14.250Z,19.4
2018-09-24T01:56:09.894Z,19.3
2018-09-24T02:01:06.040Z,19.9
2018-09-24T02:06:02.076Z,19.1
2018-09-24T02:10:57.990Z,19.1
2018-09-24T02:15:54.466Z,19.7
2018-09-24T02:20:50.098Z,19
2018-09-24T02:25:46.039Z,18.3
2018-09-24T02:30:41.807Z,18.9
2018-09-24T02:35:37.333Z,18.7
2018-09-24T02:40:33.225Z,19.6
2018-09-24T02:45:28.778Z,18.8
2018-09-24T02:50:23.894Z,19.5
2018-09-24T02:55:19.986Z,19.5
2018-09-24T03:00:15.941Z,19.4
2018-09-24T03:05:12.450Z,18.7
2018-09-24T03:10:08.111Z,19.4
2018-09-24T03:15:03.997Z,19.3
2018-09-24T03:19:59.974Z,19.3
2018-09-24T03:24:55.607Z,18.5
2018-09-24T03:29:51.458Z,19.2
2018-09-24T03:34:47.505Z,19.2
2018-09-24T03:39:43.088Z,19.1
2018-09-24T03:44:38.573Z,19.1
2018-09-24T03:49:34.368Z,19.1
2018-09-24T03:54:30.377Z,18.8
2018-09-24T03:59:26.244Z,19
2018-09-24T04:04:22.340Z,19
2018-09-24T04:09:17.948Z,18.9
2018-09-24T04:14:13.631Z,18.9
2018-09-24T04:19:09.160Z,18.2
2018-09-24T04:24:05.163Z,18.2
2018-09-24T04:29:00.995Z,18.9
2018-09-24T04:33:56.658Z,18.2
2018-09-24T04:38:52.446Z,18.8
2018-09-24T04:43:48.308Z,18.1
2018-09-24T04:48:43.917Z,18.2
2018-09-24T04:53:40.052Z,17.9
2018-09-24T04:58:35.300Z,17.5
2018-09-24T05:03:31.151Z,18.2
2018-09-24T05:08:26.793Z,18.1
2018-09-24T05:13:22.228Z,17.6
2018-09-24T05:18:17.940Z,18.1
2018-09-24T05:23:13.650Z,18.1
2018-09-24T05:28:09.575Z,18.1
2018-09-24T05:33:05.266Z,18.8
2018-09-24T05:38:00.919Z,18.8
2018-09-24T05:42:56.522Z,18.8
2018-09-24T05:47:53.014Z,18.8
2018-09-24T05:52:48.058Z,18.2
2018-09-24T05:57:43.908Z,18.6
2018-09-24T06:02:40.097Z,18.3
2018-09-24T06:07:35.702Z,18.6
2018-09-24T06:12:31.621Z,18.4
2018-09-24T06:17:27.401Z,19.1
2018-09-24T06:22:23.341Z,19.1
2018-09-24T06:27:19.862Z,19.2
2018-09-24T06:32:15.595Z,18.6
2018-09-24T06:37:11.624Z,18.6
2018-09-24T06:42:06.755Z,18.8
2018-09-24T06:47:02.827Z,19.5
2018-09-24T06:51:58.919Z,19.6
2018-09-24T06:56:54.868Z,19
2018-09-24T07:01:51.255Z,19.7
2018-09-24T07:06:46.996Z,19.1
2018-09-24T07:11:42.392Z,19.2
2018-09-24T07:16:38.396Z,19.3
2018-09-24T07:21:34.297Z,19.4
2018-09-24T07:26:30.099Z,19.4
2018-09-24T07:31:25.933Z,20.2
2018-09-24T07:36:21.886Z,18.5
2018-09-24T07:41:17.801Z,19.6
2018-09-24T07:46:14.178Z,20.4
2018-09-24T07:51:09.762Z,19.8
2018-09-24T07:56:05.665Z,19.6
2018-09-24T08:01:02.139Z,20.1
2018-09-24T08:05:58.013Z,20.2
2018-09-24T08:10:53.899Z,20.3
2018-09-24T08:15:49.868Z,20.4
2018-09-24T08:20:46.096Z,21.2
2018-09-24T08:25:42.246Z,19.9
2018-09-24T08:30:38.452Z,20.7
2018-09-24T08:35:34.478Z,21.5
2018-09-24T08:40:30.331Z,21
2018-09-24T08:45:26.220Z,21.8
2018-09-24T08:50:22.091Z,21.2
2018-09-24T08:55:18.154Z,22
2018-09-24T09:00:14.399Z,21.4
2018-09-24T09:05:10.415Z,21.5
2018-09-24T09:10:06.330Z,21.9
2018-09-24T09:15:02.281Z,22.2
2018-09-24T09:19:57.957Z,21.9
2018-09-24T09:24:53.998Z,22.8
2018-09-24T09:29:50.138Z,22.9
2018-09-24T09:34:45.735Z,22.4
2018-09-24T09:39:41.197Z,23.2
2018-09-24T09:44:37.129Z,23.4
2018-09-24T09:49:33.039Z,23.6
2018-09-24T09:54:29.286Z,24
2018-09-24T09:59:25.624Z,24.4
2018-09-24T10:04:21.921Z,24.8
2018-09-24T10:09:18.190Z,25
2018-09-24T10:14:14.287Z,25
2018-09-24T10:19:10.594Z,24.5
2018-09-24T10:24:06.379Z,24.6
2018-09-24T10:29:02.328Z,25.3
2018-09-24T10:33:58.274Z,25.5
2018-09-24T10:38:54.029Z,25.7
2018-09-24T10:43:49.999Z,26
2018-09-24T10:48:46.192Z,26
2018-09-24T10:53:41.961Z,26.2
2018-09-24T10:58:38.489Z,26.4
2018-09-24T11:03:34.403Z,26.6
2018-09-24T11:08:30.629Z,26.8
2018-09-24T11:13:26.683Z,26.2
2018-09-24T11:18:22.493Z,26.8
2018-09-24T11:23:18.452Z,27
2018-09-24T11:28:14.867Z,26.3
2018-09-24T11:33:10.755Z,26.8
2018-09-24T11:38:06.697Z,26.6
2018-09-24T11:43:02.516Z,26.5
2018-09-24T11:47:58.536Z,26.3
2018-09-24T11:52:54.354Z,25.5
2018-09-24T11:57:50.498Z,25.9
2018-09-24T12:02:45.881Z,24.9
2018-09-24T12:07:41.752Z,25.2
2018-09-24T12:12:37.913Z,25
2018-09-24T12:17:33.466Z,24
2018-09-24T12:22:29.257Z,24.2
2018-09-24T12:27:24.895Z,24
2018-09-24T12:32:20.683Z,23.8
2018-09-24T12:37:16.443Z,23.5
2018-09-24T12:42:12.099Z,23.3
2018-09-24T12:47:07.901Z,22.7
2018-09-24T12:52:03.754Z,22.3
2018-09-24T12:56:59.993Z,23.1
2018-09-24T13:01:55.733Z,22.9
2018-09-24T13:06:50.102Z,21.8
2018-09-24T13:11:45.621Z,21.5
2018-09-24T13:16:41.015Z,21.4
2018-09-24T13:21:36.719Z,21.1
2018-09-24T13:26:32.816Z,20.8
2018-09-24T13:31:28.076Z,21.1
2018-09-24T13:36:23.285Z,19.9
2018-09-24T13:41:18.811Z,20.1
2018-09-24T13:46:14.698Z,20
2018-09-24T13:51:10.374Z,19.7
2018-09-24T13:56:06.088Z,19.5
2018-09-24T14:01:01.479Z,19.4
2018-09-24T14:05:57.246Z,19.3
2018-09-24T14:10:53.447Z,19.1
2018-09-24T14:15:48.917Z,19.1
2018-09-24T14:20:44.320Z,19
2018-09-24T14:25:40.195Z,18.9
2018-09-24T14:30:35.997Z,18.7
2018-09-24T14:35:31.927Z,18.6
2018-09-24T14:40:27.607Z,18.6
2018-09-24T14:45:23.408Z,18.5
2018-09-24T14:50:19.094Z,18.3
2018-09-24T14:55:15.039Z,18.1
2018-09-24T15:00:10.571Z,17.9
2018-09-24T15:05:06.100Z,17.7
2018-09-24T15:10:01.551Z,17.6
2018-09-24T15:14:57.323Z,17.6
2018-09-24T15:19:53.215Z,17.4
2018-09-24T15:24:48.733Z,17.3
2018-09-24T15:29:44.679Z,16.5
2018-09-24T15:34:40.399Z,17.1
2018-09-24T15:39:36.258Z,17
2018-09-24T15:44:31.830Z,16.7
2018-09-24T15:49:27.654Z,16.7
2018-09-24T15:54:24.673Z,16.6
2018-09-24T15:59:19.486Z,15.7
2018-09-24T16:04:15.377Z,15.6
2018-09-24T16:09:11.032Z,16.3
2018-09-24T16:14:06.819Z,16.3
2018-09-24T16:19:03.025Z,15.5
2018-09-24T16:23:59.633Z,16.1
2018-09-24T16:28:55.585Z,15.9
2018-09-24T16:33:52.364Z,15.8
2018-09-24T16:38:48.961Z,15
2018-09-24T16:43:44.397Z,15
2018-09-24T16:48:40.266Z,14.8
2018-09-24T16:53:35.760Z,14.9
2018-09-24T16:58:31.689Z,15.5
2018-09-24T17:03:27.784Z,15.4
2018-09-24T17:08:23.372Z,15.4
2018-09-24T17:13:19.158Z,15.3
2018-09-24T17:18:14.862Z,14.5
2018-09-24T17:23:11.112Z,15.1
2018-09-24T17:28:06.874Z,14.3
2018-09-24T17:33:02.616Z,14.2
2018-09-24T17:37:58.483Z,14.9
2018-09-24T17:42:54.266Z,14.9
2018-09-24T17:47:50.073Z,14.1
2018-09-24T17:52:45.770Z,14
2018-09-24T17:57:41.653Z,14.7
2018-09-24T18:02:37.198Z,14.6
2018-09-24T18:07:33.012Z,14.6
2018-09-24T18:12:28.884Z,13.8
2018-09-24T18:17:24.479Z,14.4
2018-09-24T18:22:20.215Z,14.4
2018-09-24T18:27:16.033Z,14.4
2018-09-24T18:32:11.856Z,14.3
2018-09-24T18:37:07.563Z,13.5
2018-09-24T18:42:02.838Z,13.4
2018-09-24T18:46:58.333Z,13.4
2018-09-24T18:51:53.642Z,14.1
2018-09-24T18:56:49.487Z,14.1
2018-09-24T19:01:45.429Z,14.1
2018-09-24T19:06:41.084Z,13.3
2018-09-24T19:11:36.824Z,13.9
2018-09-24T19:16:32.047Z,13.9
2018-09-24T19:21:27.974Z,13.1
2018-09-24T19:26:23.503Z,13.1
2018-09-24T19:31:19.081Z,13.8
2018-09-24T19:36:14.883Z,13
2018-09-24T19:41:10.533Z,13
2018-09-24T19:46:06.185Z,12.9
2018-09-24T19:51:01.725Z,13.7
2018-09-24T19:55:57.311Z,13.4
2018-09-24T20:00:53.790Z,13.7
2018-09-24T20:05:49.433Z,12.8
2018-09-24T20:10:44.789Z,13.4
2018-09-24T20:15:40.289Z,13.3
2018-09-24T20:20:35.952Z,13.2
2018-09-24T20:25:31.551Z,13.1
2018-09-24T20:30:27.839Z,12.9
2018-09-24T20:35:23.579Z,12.8
2018-09-24T20:40:19.163Z,12.8
2018-09-24T20:45:14.745Z,12.7
2018-09-24T20:50:10.550Z,12.1
2018-09-24T20:55:06.381Z,11.6
2018-09-24T21:00:02.350Z,10.8
2018-09-24T21:04:57.775Z,11.6
2018-09-24T21:09:53.447Z,11.4
2018-09-24T21:14:49.077Z,11.4
2018-09-24T21:19:44.565Z,11.4
2018-09-24T21:24:40.432Z,11.3
2018-09-24T21:29:35.650Z,11.3
2018-09-24T21:34:30.783Z,11.3
2018-09-24T21:39:26.301Z,11.2
2018-09-24T21:44:21.741Z,11.1
2018-09-24T21:49:17.186Z,11.9
2018-09-24T21:54:12.646Z,10.9
2018-09-24T21:59:08.839Z,11.8
2018-09-24T22:04:04.460Z,11.1
2018-09-24T22:09:00.300Z,11
2018-09-24T22:13:55.867Z,11.7
2018-09-24T22:18:51.533Z,10.9
2018-09-24T22:23:47.124Z,10.9
2018-09-24T22:28:43.313Z,11.6
2018-09-24T22:33:38.973Z,9.9
2018-09-24T22:38:34.792Z,10.7
2018-09-24T22:43:30.668Z,10.8
2018-09-24T22:48:26.195Z,10.7
2018-09-24T22:53:21.744Z,10.4
2018-09-24T22:58:17.836Z,10.7
2018-09-24T23:03:13.549Z,10.6
2018-09-24T23:08:09.303Z,11.1
2018-09-24T23:13:05.021Z,10.6
2018-09-24T23:18:01.111Z,10.6
2018-09-24T23:22:56.986Z,11.3
2018-09-24T23:27:52.813Z,11.3
2018-09-24T23:32:48.423Z,10.5
2018-09-24T23:37:44.172Z,10.4
2018-09-24T23:42:39.768Z,11.2
2018-09-24T23:47:35.467Z,10.5
2018-09-24T23:52:31.262Z,11.3
2018-09-24T23:57:26.810Z,11.2
